Time;durP1;ratioP1;P1;durP2;ratioP2;P2;SDS_P1;SDS_P2;PMS_P1;PMS_P2;Temp;Humidity;BMP_temperature;BMP_pressure;BME280_temperature;BME280_humidity;BME280_pressure;Samples;Min_cycle;Max_cycle;Signal;HPM_P1;HPM_P2
2022/10/07 00:00:23;;;;;;;2.97;2.55;;;;;;;16.46;77.50;96708.44;4995950;28;20206;-81
2022/10/07 00:02:49;;;;;;;2.83;2.55;;;;;;;16.51;77.93;96711.28;4995501;28;20191;-79
2022/10/07 00:05:16;;;;;;;2.92;2.65;;;;;;;16.47;77.63;96703.06;4995947;28;20234;-80
2022/10/07 00:07:42;;;;;;;4.03;2.53;;;;;;;16.43;78.12;96703.59;4995711;28;20255;-80
2022/10/07 00:10:09;;;;;;;5.97;2.92;;;;;;;16.48;78.14;96701.25;4995099;28;20214;-79
2022/10/07 00:12:35;;;;;;;3.45;2.67;;;;;;;16.50;77.42;96700.09;4995269;28;20585;-82
2022/10/07 00:15:02;;;;;;;4.28;2.70;;;;;;;16.45;77.71;96699.03;4995600;28;20296;-79
2022/10/07 00:17:30;;;;;;;4.28;2.65;;;;;;;16.39;78.09;96697.16;4995719;28;20226;-81
2022/10/07 00:19:56;;;;;;;3.63;2.58;;;;;;;16.35;77.74;96695.94;4996097;28;20203;-80
2022/10/07 00:22:24;;;;;;;2.47;2.28;;;;;;;16.32;78.26;96696.31;4995876;28;20295;-80
2022/10/07 00:24:50;;;;;;;5.18;2.78;;;;;;;16.36;78.17;96693.13;4995825;28;20196;-80
2022/10/07 00:27:17;;;;;;;3.70;2.47;;;;;;;16.45;77.74;96692.03;4995976;28;20234;-79
2022/10/07 00:29:43;;;;;;;3.00;2.78;;;;;;;16.44;77.66;96692.22;4995588;28;20195;-80
2022/10/07 00:32:10;;;;;;;2.50;2.30;;;;;;;16.34;77.79;96683.94;4995442;28;20207;-80
2022/10/07 00:34:38;;;;;;;3.10;2.55;;;;;;;16.34;77.87;96689.13;4995748;28;20199;-80
2022/10/07 00:37:04;;;;;;;3.45;2.88;;;;;;;16.29;77.68;96674.09;4996217;28;20234;-80
2022/10/07 00:39:30;;;;;;;3.25;2.72;;;;;;;16.26;78.04;96671.06;4994911;28;20581;-80
2022/10/07 00:41:57;;;;;;;3.08;2.78;;;;;;;16.26;77.48;96665.84;4995778;28;20204;-80
2022/10/07 00:44:37;;;;;;;3.60;2.83;;;;;;;16.31;77.55;96673.91;4994275;28;20200;-80
2022/10/07 00:47:10;;;;;;;4.70;3.00;;;;;;;16.31;78.06;96664.31;4989423;28;20219;-79
2022/10/07 00:49:41;;;;;;;2.83;2.40;;;;;;;16.38;77.20;96661.75;4994837;28;20203;-80
2022/10/07 00:52:08;;;;;;;4.05;2.50;;;;;;;16.40;77.43;96655.38;4993836;28;20274;-82
2022/10/07 00:54:37;;;;;;;3.53;2.50;;;;;;;16.42;76.92;96650.81;4994077;28;20192;-80
2022/10/07 00:57:03;;;;;;;2.80;2.47;;;;;;;16.38;77.19;96649.56;4994421;28;20215;-80
2022/10/07 00:59:30;;;;;;;4.15;2.80;;;;;;;16.35;76.93;96647.38;4994467;28;20207;-81
2022/10/07 01:01:56;;;;;;;3.03;2.70;;;;;;;16.29;76.97;96639.50;4994340;28;20203;-80
2022/10/07 01:04:23;;;;;;;2.65;2.45;;;;;;;16.27;77.81;96647.47;4994205;28;20203;-79
2022/10/07 01:06:51;;;;;;;5.38;2.70;;;;;;;16.32;77.27;96641.72;4993670;28;20231;-81
2022/10/07 01:09:19;;;;;;;3.47;2.70;;;;;;;16.38;76.61;96640.97;4993887;28;20195;-80
2022/10/07 01:11:55;;;;;;;3.28;2.80;;;;;;;16.43;76.96;96642.03;4994082;28;20209;-80
2022/10/07 01:14:33;;;;;;;4.22;3.00;;;;;;;16.42;77.05;96642.22;4992815;28;20207;-80
2022/10/07 01:17:04;;;;;;;4.63;2.80;;;;;;;16.45;77.09;96636.63;4989042;28;20218;-81
2022/10/07 01:19:52;;;;;;;4.30;2.90;;;;;;;16.51;76.31;96638.50;4994429;28;20219;-79
2022/10/07 01:22:28;;;;;;;4.25;2.50;;;;;;;16.51;76.75;96633.31;4992601;28;20199;-80
2022/10/07 01:25:11;;;;;;;3.97;2.95;;;;;;;16.55;76.16;96631.91;4987988;28;20202;-79
2022/10/07 01:27:44;;;;;;;2.92;2.50;;;;;;;16.54;76.27;96625.13;4994337;28;20266;-80
2022/10/07 01:30:11;;;;;;;4.20;2.95;;;;;;;16.52;75.65;96627.09;4994376;28;20206;-80
2022/10/07 01:32:41;;;;;;;4.22;3.22;;;;;;;16.55;75.69;96624.09;4993413;28;20195;-80
2022/10/07 01:35:12;;;;;;;6.05;2.92;;;;;;;16.52;75.62;96619.31;4994254;28;20204;-80
2022/10/07 01:37:44;;;;;;;3.58;3.08;;;;;;;16.49;75.81;96617.88;4993282;28;20219;-80
2022/10/07 01:40:15;;;;;;;6.18;2.75;;;;;;;16.42;76.59;96614.41;4989347;28;20204;-82
2022/10/07 01:42:44;;;;;;;4.32;3.03;;;;;;;16.38;76.64;96609.78;4993516;28;20199;-81
2022/10/07 01:45:14;;;;;;;4.25;2.63;;;;;;;16.40;76.33;96606.00;4994612;28;20218;-80
2022/10/07 01:47:41;;;;;;;5.53;3.10;;;;;;;16.35;76.78;96604.97;4992891;28;20281;-80
2022/10/07 01:50:12;;;;;;;3.80;3.05;;;;;;;16.38;76.63;96605.38;4993182;28;20200;-80
2022/10/07 01:52:54;;;;;;;4.80;3.08;;;;;;;16.46;76.08;96600.06;4993248;28;20250;-80
2022/10/07 01:55:37;;;;;;;7.00;3.45;;;;;;;16.46;76.41;96601.84;4992786;28;20200;-79
2022/10/07 01:58:18;;;;;;;3.03;2.72;;;;;;;16.36;76.45;96599.56;4988778;28;20228;-80
2022/10/07 02:00:48;;;;;;;3.38;2.85;;;;;;;16.29;76.72;96595.31;4992480;28;20195;-80
2022/10/07 02:03:31;;;;;;;3.40;3.10;;;;;;;16.18;77.02;96599.19;4992861;28;20207;-80
2022/10/07 02:06:04;;;;;;;4.07;3.67;;;;;;;16.21;76.88;96593.63;4986617;28;20270;-80
2022/10/07 02:08:38;;;;;;;6.95;3.35;;;;;;;16.17;76.97;96595.78;4992726;28;20215;-79
2022/10/07 02:11:12;;;;;;;4.18;3.50;;;;;;;16.21;77.00;96596.22;4992387;28;20651;-80
2022/10/07 02:13:45;;;;;;;5.20;3.50;;;;;;;16.13;77.28;96594.59;4991290;28;20203;-78
2022/10/07 02:16:17;;;;;;;5.30;3.40;;;;;;;16.14;77.51;96592.78;4993007;28;20202;-81
2022/10/07 02:18:48;;;;;;;3.60;3.30;;;;;;;16.12;77.17;96592.97;4992544;28;20224;-80
2022/10/07 02:21:18;;;;;;;3.53;3.20;;;;;;;16.19;77.64;96587.81;4992322;28;20191;-80
2022/10/07 02:23:48;;;;;;;3.47;3.13;;;;;;;16.23;77.24;96589.88;4992721;28;20199;-79
2022/10/07 02:26:19;;;;;;;5.40;3.75;;;;;;;16.20;77.37;96582.44;4992642;28;20219;-79
2022/10/07 02:28:51;;;;;;;4.35;3.28;;;;;;;16.28;77.00;96581.50;4992178;28;20589;-81
2022/10/07 02:31:23;;;;;;;3.80;3.47;;;;;;;16.34;76.99;96583.38;4992209;28;20672;-80
2022/10/07 02:33:53;;;;;;;4.25;3.20;;;;;;;16.21;77.22;96583.25;4992459;28;20202;-80
2022/10/07 02:36:24;;;;;;;4.55;4.15;;;;;;;16.18;77.51;96578.41;4992931;28;20195;-79
2022/10/07 02:38:51;;;;;;;4.25;3.85;;;;;;;16.13;77.76;96581.59;4986019;28;20230;-79
2022/10/07 02:41:31;;;;;;;3.88;3.50;;;;;;;16.08;77.90;96573.53;4992887;28;20274;-80
2022/10/07 02:44:07;;;;;;;5.88;3.50;;;;;;;16.07;78.42;96571.13;4987215;28;20195;-81
2022/10/07 02:46:38;;;;;;;4.45;3.50;;;;;;;16.12;78.27;96572.19;4992704;28;20219;-82
2022/10/07 02:49:08;;;;;;;3.38;3.08;;;;;;;16.11;78.65;96569.78;4992413;28;20222;-80
2022/10/07 02:51:39;;;;;;;6.28;4.00;;;;;;;16.07;78.39;96568.53;4991487;28;20204;-80
2022/10/07 02:54:06;;;;;;;3.20;3.00;;;;;;;16.03;78.95;96565.50;4991766;28;20679;-80
2022/10/07 02:56:35;;;;;;;6.53;3.45;;;;;;;16.07;78.58;96563.34;4991718;28;20203;-80
2022/10/07 02:59:08;;;;;;;3.72;3.10;;;;;;;16.11;78.78;96559.38;4986084;28;20223;-81
2022/10/07 03:01:40;;;;;;;5.38;3.05;;;;;;;16.10;78.56;96566.38;4986254;28;20203;-80
2022/10/07 03:04:06;;;;;;;5.05;3.38;;;;;;;16.09;78.51;96567.38;4991794;28;20192;-79
2022/10/07 03:06:35;;;;;;;3.45;3.00;;;;;;;16.14;78.15;96556.41;4991373;28;20262;-79
2022/10/07 03:09:02;;;;;;;3.63;3.33;;;;;;;16.09;78.24;96559.56;4992294;28;20226;-79
2022/10/07 03:11:29;;;;;;;3.40;3.10;;;;;;;16.03;78.46;96560.31;4991550;28;20196;-79
2022/10/07 03:13:56;;;;;;;5.68;3.13;;;;;;;16.02;78.25;96560.47;4990853;28;20199;-81
2022/10/07 03:16:23;;;;;;;3.63;3.00;;;;;;;15.99;78.19;96555.66;4995021;28;20580;-80
2022/10/07 03:18:50;;;;;;;5.40;3.15;;;;;;;15.98;78.17;96557.44;4995638;28;20613;-80
2022/10/07 03:21:17;;;;;;;3.55;2.70;;;;;;;15.96;78.49;96551.66;4995033;28;20203;-80
2022/10/07 03:23:43;;;;;;;3.53;3.03;;;;;;;15.98;78.20;96551.44;4995402;28;20205;-79
2022/10/07 03:26:10;;;;;;;3.58;3.20;;;;;;;15.94;78.27;96551.03;4995784;28;20210;-80
2022/10/07 03:28:36;;;;;;;3.72;3.38;;;;;;;15.88;78.14;96554.38;4995905;28;20588;-80
2022/10/07 03:31:05;;;;;;;4.18;3.30;;;;;;;15.78;78.50;96549.47;4995837;28;20837;-80
2022/10/07 03:33:33;;;;;;;5.65;3.15;;;;;;;15.78;78.48;96548.66;4995500;28;20591;-80
2022/10/07 03:36:00;;;;;;;3.40;3.10;;;;;;;15.78;78.04;96544.28;4995908;28;20210;-79
2022/10/07 03:38:26;;;;;;;3.13;2.65;;;;;;;15.70;78.43;96544.41;4996224;28;20230;-79
2022/10/07 03:40:53;;;;;;;3.40;2.65;;;;;;;15.67;78.63;96546.56;4996013;28;20693;-80
2022/10/07 03:43:19;;;;;;;6.32;3.08;;;;;;;15.53;78.85;96546.41;4996373;28;20199;-80
2022/10/07 03:45:50;;;;;;;5.93;2.72;;;;;;;15.57;79.08;96548.69;4995679;28;20227;-81
2022/10/07 03:48:17;;;;;;;4.63;2.67;;;;;;;15.55;79.11;96543.63;4992579;28;20293;-80
2022/10/07 03:50:51;;;;;;;3.13;2.83;;;;;;;15.57;78.79;96552.06;4996863;28;20215;-80
2022/10/07 03:53:18;;;;;;;3.20;2.90;;;;;;;15.51;78.83;96542.38;4996297;28;20845;-80
2022/10/07 03:55:45;;;;;;;3.17;2.58;;;;;;;15.43;78.76;96545.88;4995254;28;20203;-79
2022/10/07 03:58:12;;;;;;;6.28;2.88;;;;;;;15.38;79.07;96542.25;4995066;28;20223;-79
2022/10/07 04:00:40;;;;;;;3.90;3.05;;;;;;;15.10;79.82;96542.91;4995002;28;20200;-79
2022/10/07 04:03:07;;;;;;;2.92;2.63;;;;;;;15.07;80.18;96539.88;4995035;28;20261;-81
2022/10/07 04:05:34;;;;;;;3.72;3.30;;;;;;;15.06;80.29;96541.66;4995268;28;20203;-80
2022/10/07 04:08:05;;;;;;;5.30;3.00;;;;;;;15.09;80.37;96537.91;4997332;28;20219;-81
2022/10/07 04:10:32;;;;;;;4.40;3.40;;;;;;;15.06;80.26;96538.25;4997904;28;20211;-81
2022/10/07 04:12:59;;;;;;;3.40;3.10;;;;;;;15.07;80.07;96535.47;4996929;28;20218;-80
2022/10/07 04:15:26;;;;;;;3.90;3.53;;;;;;;15.07;80.16;96532.09;4996779;28;20214;-80
2022/10/07 04:17:57;;;;;;;4.72;3.42;;;;;;;15.03;80.40;96534.22;4997123;28;20227;-79
2022/10/07 04:20:24;;;;;;;5.43;3.60;;;;;;;15.02;80.17;96537.81;4996989;28;20196;-80
2022/10/07 04:22:51;;;;;;;3.50;3.20;;;;;;;15.02;79.71;96522.25;4997419;28;20199;-80
2022/10/07 04:28:01;;;;;;;4.10;2.97;;;;;;;14.88;80.13;96523.06;4986453;28;20227;-83
2022/10/07 04:30:32;;;;;;;4.13;3.33;;;;;;;14.83;79.98;96518.41;4988467;28;20234;-83
2022/10/07 04:32:59;;;;;;;5.03;3.20;;;;;;;14.83;80.29;96515.03;4993780;28;20211;-83
2022/10/07 04:35:26;;;;;;;4.60;3.55;;;;;;;14.70;80.50;96507.06;4993696;28;20199;-83
2022/10/07 04:37:53;;;;;;;3.85;3.45;;;;;;;14.72;80.00;96508.50;4976424;28;20247;-80
2022/10/07 04:40:22;;;;;;;4.88;3.63;;;;;;;14.76;80.21;96507.19;4975880;28;20208;-80
2022/10/07 04:45:34;;;;;;;5.35;3.65;;;;;;;14.91;79.09;96506.34;4985461;28;20991;-80
2022/10/07 04:48:01;;;;;;;3.50;3.20;;;;;;;14.83;79.27;96502.06;4995725;28;20234;-80
2022/10/07 04:50:28;;;;;;;3.40;2.95;;;;;;;14.85;79.25;96500.09;4993720;28;20315;-80
2022/10/07 04:52:55;;;;;;;4.35;3.75;;;;;;;14.91;78.79;96501.16;4981999;28;20631;-81
2022/10/07 04:55:22;;;;;;;3.80;3.47;;;;;;;14.91;78.72;96506.34;4995961;28;20195;-80
2022/10/07 04:57:49;;;;;;;4.63;3.72;;;;;;;14.98;78.55;96502.88;4995258;28;20212;-80
2022/10/07 05:00:16;;;;;;;4.88;3.65;;;;;;;14.97;77.98;96501.25;4995969;28;20203;-80
2022/10/07 05:02:43;;;;;;;3.97;3.53;;;;;;;14.92;78.13;96500.19;4994753;28;20196;-81
2022/10/07 05:05:10;;;;;;;5.88;3.78;;;;;;;14.86;78.13;96491.34;4994897;28;20283;-81
2022/10/07 05:07:36;;;;;;;5.50;4.05;;;;;;;14.75;78.99;96500.38;4994500;28;20227;-80
2022/10/07 05:10:04;;;;;;;4.07;3.67;;;;;;;14.68;79.21;96503.84;4994620;28;20668;-78
2022/10/07 05:12:32;;;;;;;4.13;3.65;;;;;;;14.67;79.22;96504.84;4993995;28;20199;-80
2022/10/07 05:14:59;;;;;;;3.90;3.50;;;;;;;14.74;79.41;96506.56;4993303;28;20214;-80
2022/10/07 05:17:25;;;;;;;6.05;4.43;;;;;;;14.72;79.77;96502.53;4995233;28;20683;-79
2022/10/07 05:19:52;;;;;;;5.25;4.85;;;;;;;14.71;80.08;96504.31;4994103;28;20203;-81
2022/10/07 05:22:18;;;;;;;8.45;5.82;;;;;;;14.73;79.87;96502.34;4994476;28;20203;-79
2022/10/07 05:24:45;;;;;;;7.70;6.53;;;;;;;14.73;80.19;96504.13;4994681;28;20816;-79
2022/10/07 05:27:13;;;;;;;8.18;7.32;;;;;;;14.64;80.91;96500.00;4990616;28;20907;-79
2022/10/07 05:29:40;;;;;;;8.32;7.25;;;;;;;14.71;80.34;96508.69;4995602;28;20199;-78
2022/10/07 05:32:07;;;;;;;9.02;7.75;;;;;;;14.76;80.61;96501.19;4993484;28;20196;-82
2022/10/07 05:34:33;;;;;;;10.35;8.77;;;;;;;14.75;80.51;96502.97;5005252;28;20213;-81
2022/10/07 05:37:00;;;;;;;10.70;8.32;;;;;;;14.61;83.75;96506.38;5013318;28;20220;-81
2022/10/07 05:39:26;;;;;;;9.30;8.20;;;;;;;14.54;82.30;96500.28;5014387;28;20214;-82
2022/10/07 05:41:53;;;;;;;13.40;8.90;;;;;;;14.54;84.48;96502.88;5004694;28;20199;-82
2022/10/07 05:44:19;;;;;;;12.50;8.63;;;;;;;14.48;84.48;96496.63;4994127;28;20280;-82
2022/10/07 05:46:48;;;;;;;13.75;8.68;;;;;;;14.52;83.86;96495.28;4993530;28;20200;-81
2022/10/07 05:49:14;;;;;;;12.52;10.90;;;;;;;14.66;82.08;96490.28;4992884;28;20579;-82
2022/10/07 05:51:41;;;;;;;22.40;19.25;;;;;;;14.72;81.42;96489.56;4994477;28;20206;-84
2022/10/07 05:54:08;;;;;;;16.35;13.30;;;;;;;14.78;81.01;96496.63;4991513;28;20207;-82
2022/10/07 05:56:35;;;;;;;10.95;9.45;;;;;;;14.74;80.80;96487.59;4994159;28;20675;-82
2022/10/07 05:59:03;;;;;;;11.63;9.18;;;;;;;14.67;81.13;96487.50;4994955;28;20223;-81
2022/10/07 06:01:30;;;;;;;9.68;8.57;;;;;;;14.75;80.72;96496.97;4989755;28;20283;-81
2022/10/07 06:03:59;;;;;;;9.18;8.10;;;;;;;14.75;80.63;96492.59;4992114;28;20262;-82
2022/10/07 06:06:28;;;;;;;8.73;7.85;;;;;;;14.81;80.18;96496.28;4993321;28;20563;-83
2022/10/07 06:13:06;;;;;;;11.48;8.48;;;;;;;14.83;79.87;96502.88;4993829;28;20242;-82
2022/10/07 06:14:28;;;;;;;8.55;7.57;;;;;;;14.77;80.21;96502.78;4988975;28;20222;-82
2022/10/07 06:16:55;;;;;;;7.93;7.13;;;;;;;14.85;79.64;96511.28;4993727;28;20222;-81
2022/10/07 06:19:23;;;;;;;7.75;6.95;;;;;;;14.86;79.33;96517.25;4994424;28;20759;-80
2022/10/07 06:21:49;;;;;;;8.07;7.38;;;;;;;14.85;78.54;96507.88;4994888;28;20199;-79
2022/10/07 06:24:16;;;;;;;8.85;7.55;;;;;;;14.83;78.67;96505.44;4990125;28;20211;-80
2022/10/07 06:26:46;;;;;;;7.90;7.20;;;;;;;14.90;78.46;96502.16;4978777;28;20211;-80
2022/10/07 06:29:12;;;;;;;7.53;6.65;;;;;;;14.91;78.59;96509.75;4975232;28;20238;-80
2022/10/07 06:31:39;;;;;;;12.38;10.93;;;;;;;14.92;78.62;96506.19;4996419;28;20230;-80
2022/10/07 06:34:08;;;;;;;19.05;15.50;;;;;;;14.86;78.90;96506.88;4994994;28;20210;-80
2022/10/07 06:36:36;;;;;;;10.70;9.13;;;;;;;14.90;78.57;96507.34;4993183;28;20412;-80
2022/10/07 06:39:02;;;;;;;9.15;7.47;;;;;;;14.85;79.21;96505.28;4992442;28;20231;-80
2022/10/07 06:41:29;;;;;;;7.72;6.93;;;;;;;14.86;78.67;96512.88;4993022;28;20203;-80
2022/10/07 06:43:56;;;;;;;7.55;6.63;;;;;;;14.85;79.18;96506.09;4993312;28;20214;-78
2022/10/07 06:46:23;;;;;;;8.00;7.20;;;;;;;14.89;79.13;96516.91;4992416;28;20208;-81
2022/10/07 06:48:50;;;;;;;7.43;6.72;;;;;;;14.83;80.27;96513.22;4991738;28;20224;-81
2022/10/07 06:51:20;;;;;;;8.38;7.57;;;;;;;14.79;80.07;96511.19;4992321;28;20225;-82
2022/10/07 06:53:51;;;;;;;7.90;7.03;;;;;;;14.89;79.52;96510.91;4993003;28;20188;-81
2022/10/07 06:56:18;;;;;;;10.35;7.53;;;;;;;14.97;78.71;96508.22;4992077;28;20207;-82
2022/10/07 06:58:44;;;;;;;10.18;7.32;;;;;;;15.02;78.36;96508.47;4992323;28;20223;-81
2022/10/07 07:01:12;;;;;;;9.40;7.68;;;;;;;15.08;78.02;96503.38;4992709;28;20203;-81
2022/10/07 07:03:38;;;;;;;9.20;7.50;;;;;;;15.10;77.92;96504.00;4993458;28;20223;-81
2022/10/07 07:06:07;;;;;;;8.02;7.32;;;;;;;15.15;77.86;96512.06;4993189;28;20797;-80
2022/10/07 07:08:35;;;;;;;10.13;7.05;;;;;;;15.20;77.83;96511.50;4993199;28;20227;-80
2022/10/07 07:11:05;;;;;;;8.82;6.97;;;;;;;15.24;77.52;96502.34;4986274;28;20204;-81
2022/10/07 07:13:34;;;;;;;7.65;6.82;;;;;;;15.30;77.50;96512.00;4989167;28;20191;-81
2022/10/07 07:16:01;;;;;;;7.40;6.50;;;;;;;15.33;77.53;96497.88;4992928;28;20199;-81
2022/10/07 07:18:28;;;;;;;7.65;7.05;;;;;;;15.30;77.63;96503.41;4992511;28;20215;-81
2022/10/07 07:20:56;;;;;;;7.30;6.70;;;;;;;15.22;77.82;96509.50;4994713;28;20207;-80
2022/10/07 07:23:24;;;;;;;7.60;6.90;;;;;;;15.32;78.00;96514.44;4995668;28;20227;-80
2022/10/07 07:25:50;;;;;;;7.40;6.70;;;;;;;15.38;77.62;96500.72;4995778;28;20203;-81
2022/10/07 07:28:18;;;;;;;7.38;6.68;;;;;;;15.34;78.21;96505.47;4995372;28;20319;-79
2022/10/07 07:30:47;;;;;;;7.45;6.82;;;;;;;15.40;78.09;96504.72;4994017;28;20243;-81
2022/10/07 07:33:14;;;;;;;6.97;6.38;;;;;;;15.48;77.77;96507.22;4994405;28;20211;-81
2022/10/07 07:35:42;;;;;;;6.55;5.95;;;;;;;15.57;77.41;96504.53;4995578;28;20214;-81
2022/10/07 07:38:09;;;;;;;43.53;38.75;;;;;;;15.67;77.21;96502.44;4996871;28;20770;-82
2022/10/07 07:40:37;;;;;;;13.18;11.60;;;;;;;15.67;77.57;96495.44;5000583;28;20196;-81
2022/10/07 07:43:04;;;;;;;9.40;8.10;;;;;;;15.66;77.75;96496.44;5001403;28;20207;-80
2022/10/07 07:45:35;;;;;;;7.65;6.95;;;;;;;15.67;77.81;96502.44;4995371;28;20195;-80
2022/10/07 07:48:02;;;;;;;8.85;7.15;;;;;;;15.74;77.47;96498.13;4994691;28;20710;-80
2022/10/07 07:50:28;;;;;;;7.85;7.05;;;;;;;15.80;77.51;96492.97;4995385;28;20199;-81
2022/10/07 07:52:55;;;;;;;8.68;7.80;;;;;;;15.89;77.17;96498.84;4994754;28;20192;-80
2022/10/07 07:55:22;;;;;;;10.63;8.85;;;;;;;15.97;77.33;96495.31;4995095;28;20200;-80
2022/10/07 07:57:49;;;;;;;9.30;8.32;;;;;;;16.03;77.55;96487.56;4992281;28;20215;-81
2022/10/07 08:00:17;;;;;;;9.38;8.48;;;;;;;16.07;77.14;96491.41;4996747;28;20230;-82
2022/10/07 08:02:45;;;;;;;10.65;9.23;;;;;;;16.08;77.37;96492.19;4999512;28;20200;-82
2022/10/07 08:05:11;;;;;;;11.30;10.15;;;;;;;16.04;77.65;96483.97;4999276;28;20203;-82
2022/10/07 08:07:38;;;;;;;11.82;10.40;;;;;;;16.07;77.74;96485.41;4998313;28;20227;-82
2022/10/07 08:10:06;;;;;;;10.38;9.27;;;;;;;16.08;77.80;96487.00;4997712;28;20211;-83
2022/10/07 08:12:32;;;;;;;12.02;10.23;;;;;;;16.02;77.87;96480.75;4997745;28;20682;-83
2022/10/07 08:14:59;;;;;;;11.13;10.02;;;;;;;16.03;77.80;96484.97;4998976;28;20219;-81
2022/10/07 08:17:25;;;;;;;27.58;24.27;;;;;;;15.94;78.39;96488.69;4999853;28;20223;-81
2022/10/07 08:19:55;;;;;;;19.48;17.35;;;;;;;15.82;79.82;96490.97;4999621;28;20209;-80
2022/10/07 08:22:21;;;;;;;13.35;9.77;;;;;;;15.74;80.72;96492.91;4979326;28;20630;-81
2022/10/07 08:24:48;;;;;;;10.75;9.65;;;;;;;15.66;81.80;96488.66;4987700;28;20694;-80
2022/10/07 08:27:14;;;;;;;10.60;9.55;;;;;;;15.79;80.60;96493.94;4997788;28;20220;-80
2022/10/07 08:29:41;;;;;;;11.77;9.73;;;;;;;15.89;79.98;96491.84;4999627;28;20821;-80
2022/10/07 08:32:07;;;;;;;11.40;9.75;;;;;;;15.97;79.20;96483.09;4998832;28;20199;-80
2022/10/07 08:34:35;;;;;;;11.82;10.60;;;;;;;16.04;78.86;96478.78;4999156;28;20211;-80
2022/10/07 08:37:03;;;;;;;11.10;9.98;;;;;;;16.05;79.09;96482.97;4998803;28;20207;-79
2022/10/07 08:39:30;;;;;;;12.45;10.80;;;;;;;15.96;80.11;96478.94;4997860;28;20211;-80
2022/10/07 08:42:07;;;;;;;12.88;11.57;;;;;;;16.03;79.49;96477.16;4996622;28;20199;-80
2022/10/07 08:44:38;;;;;;;14.68;11.35;;;;;;;16.08;79.60;96468.81;4997545;28;20226;-80
2022/10/07 08:47:14;;;;;;;15.80;10.68;;;;;;;16.08;80.01;96476.63;4996467;28;20210;-80
2022/10/07 08:49:53;;;;;;;13.02;10.80;;;;;;;16.12;79.87;96467.47;4996894;28;20255;-79
2022/10/07 08:52:29;;;;;;;12.88;11.27;;;;;;;16.15;79.60;96462.69;4996315;28;20203;-80
2022/10/07 08:54:55;;;;;;;12.13;10.85;;;;;;;16.13;79.56;96462.06;4997120;28;20207;-80
2022/10/07 08:57:38;;;;;;;12.57;11.27;;;;;;;16.17;79.08;96465.06;4995689;28;20230;-80
2022/10/07 09:00:06;;;;;;;14.43;10.65;;;;;;;16.11;79.91;96469.25;4996599;28;20596;-80
2022/10/07 09:02:41;;;;;;;12.30;11.00;;;;;;;16.11;79.97;96465.84;4997123;28;20344;-80
2022/10/07 09:05:18;;;;;;;12.43;11.13;;;;;;;16.14;80.04;96460.28;4997322;28;20203;-79
2022/10/07 09:07:49;;;;;;;13.35;11.50;;;;;;;16.16;79.74;96461.66;4996138;28;20732;-79
2022/10/07 09:10:26;;;;;;;12.35;11.10;;;;;;;16.15;80.06;96462.69;4995286;28;20211;-80
2022/10/07 09:12:57;;;;;;;15.10;13.15;;;;;;;15.91;81.70;96457.91;4994651;28;20810;-80
2022/10/07 09:15:34;;;;;;;13.50;12.18;;;;;;;15.97;81.40;96456.34;4996924;28;20231;-81
2022/10/07 09:18:07;;;;;;;13.50;12.20;;;;;;;16.03;81.28;96453.78;4995512;28;20223;-81
2022/10/07 09:20:39;;;;;;;13.05;11.73;;;;;;;16.08;81.16;96458.44;4995077;28;20227;-80
2022/10/07 09:23:14;;;;;;;12.85;11.50;;;;;;;16.12;81.07;96449.25;4996973;28;20234;-80
2022/10/07 09:25:41;;;;;;;14.45;12.35;;;;;;;16.12;80.88;96452.66;4982061;28;20614;-80
2022/10/07 09:28:12;;;;;;;13.38;12.07;;;;;;;16.15;81.15;96451.50;4977954;28;20231;-81
2022/10/07 09:30:39;;;;;;;84.53;73.35;;;;;;;15.98;83.17;96443.16;4978524;28;20212;-82
2022/10/07 09:33:13;;;;;;;21.52;18.13;;;;;;;16.08;82.31;96441.03;4981472;28;20212;-81
2022/10/07 09:35:39;;;;;;;14.27;12.88;;;;;;;16.16;81.96;96435.69;4996774;28;20206;-81
2022/10/07 09:38:08;;;;;;;17.40;12.75;;;;;;;16.21;82.25;96435.94;4992175;28;20231;-82
2022/10/07 09:41:13;;;;;;;12.88;11.57;;;;;;;16.30;81.61;96428.00;4992638;28;20203;-81
2022/10/07 09:43:27;;;;;;;12.73;11.48;;;;;;;16.39;81.10;96429.44;4993976;28;20224;-82
2022/10/07 09:45:55;;;;;;;13.57;11.55;;;;;;;16.48;80.30;96430.88;4989287;28;20200;-82
2022/10/07 09:48:26;;;;;;;13.38;11.90;;;;;;;16.50;80.34;96434.91;4990038;28;20843;-81
2022/10/07 09:51:12;;;;;;;14.88;13.38;;;;;;;16.51;79.95;96431.31;4989617;28;20686;-81
2022/10/07 09:53:56;;;;;;;14.65;12.70;;;;;;;16.50;80.99;96444.50;4990625;28;20187;-82
2022/10/07 09:56:38;;;;;;;23.08;20.67;;;;;;;16.49;81.60;96429.91;4987044;28;20242;-80
2022/10/07 09:59:22;;;;;;;25.58;22.95;;;;;;;16.36;86.49;96425.41;4990227;28;20218;-80
2022/10/07 10:01:51;;;;;;;16.00;13.35;;;;;;;16.45;82.31;96421.66;4990639;28;20427;-79
2022/10/07 10:04:19;;;;;;;15.10;13.55;;;;;;;16.48;83.46;96425.69;4990202;28;20210;-80
2022/10/07 10:06:48;;;;;;;14.68;13.18;;;;;;;16.58;81.39;96423.53;4989011;28;20211;-81
2022/10/07 10:09:21;;;;;;;14.18;12.50;;;;;;;16.68;79.97;96415.41;4988800;28;20227;-80
2022/10/07 10:12:02;;;;;;;13.70;12.50;;;;;;;16.72;78.65;96414.84;4990327;28;20199;-80
2022/10/07 10:14:40;;;;;;;13.50;12.18;;;;;;;16.69;78.64;96419.63;4985465;28;20317;-82
2022/10/07 10:17:22;;;;;;;12.85;11.55;;;;;;;16.78;79.27;96414.03;4989610;28;20195;-82
2022/10/07 10:19:48;;;;;;;14.82;13.27;;;;;;;16.71;78.49;96413.22;4989655;28;20258;-81
2022/10/07 10:22:24;;;;;;;13.82;12.52;;;;;;;16.84;78.55;96408.06;4987827;28;20200;-82
2022/10/07 10:27:44;;;;;;;13.77;12.27;;;;;;;16.95;78.26;96405.88;4990919;28;20635;-79
2022/10/07 10:30:18;;;;;;;13.57;12.27;;;;;;;16.93;78.23;96408.72;4990898;28;20214;-79
2022/10/07 10:33:05;;;;;;;13.52;12.10;;;;;;;17.05;77.25;96406.31;4989759;28;20199;-80
2022/10/07 10:35:37;;;;;;;14.15;12.75;;;;;;;16.90;77.12;96399.50;4986892;28;20231;-80
2022/10/07 10:38:22;;;;;;;13.80;12.30;;;;;;;17.00;76.95;96398.31;4986421;28;20230;-80
2022/10/07 10:40:58;;;;;;;35.85;31.83;;;;;;;17.10;77.43;96394.34;4988278;28;20203;-80
2022/10/07 10:43:31;;;;;;;17.80;16.05;;;;;;;17.16;76.36;96392.72;4990136;28;20210;-80
2022/10/07 10:46:12;;;;;;;13.48;12.15;;;;;;;17.26;76.53;96393.16;4991050;28;20223;-82
2022/10/07 10:48:45;;;;;;;13.85;12.55;;;;;;;17.13;76.82;96388.72;4990324;28;20238;-79
2022/10/07 10:51:30;;;;;;;16.02;12.95;;;;;;;17.04;77.24;96386.50;4994038;28;20199;-79
2022/10/07 10:54:10;;;;;;;14.45;13.05;;;;;;;17.17;76.73;96381.31;4993968;28;20664;-80
2022/10/07 10:56:44;;;;;;;15.13;13.50;;;;;;;17.27;76.35;96379.16;4992742;28;20586;-79
2022/10/07 10:59:33;;;;;;;15.02;11.68;;;;;;;17.39;76.06;96372.34;4988106;28;20223;-79
2022/10/07 11:02:17;;;;;;;13.43;12.23;;;;;;;17.47;74.97;96366.16;4988653;28;20207;-80
2022/10/07 11:04:49;;;;;;;13.23;11.93;;;;;;;17.52;75.27;96363.72;4993985;28;20191;-80
2022/10/07 11:07:21;;;;;;;15.02;12.48;;;;;;;17.57;74.63;96359.53;4995546;28;20235;-80
2022/10/07 11:09:51;;;;;;;13.32;12.05;;;;;;;17.67;74.23;96359.16;4992973;28;20215;-82
2022/10/07 11:12:25;;;;;;;16.23;14.57;;;;;;;17.58;74.04;96355.13;4990443;28;20618;-82
2022/10/07 11:14:56;;;;;;;32.85;29.23;;;;;;;17.66;75.36;96356.75;4988799;28;20214;-82
2022/10/07 11:17:30;;;;;;;33.60;29.92;;;;;;;17.94;74.43;96350.28;4992199;28;20216;-82
2022/10/07 11:20:03;;;;;;;15.13;13.63;;;;;;;18.14;73.83;96337.22;4990972;28;20219;-82
2022/10/07 11:22:36;;;;;;;13.63;12.27;;;;;;;18.07;72.10;96339.06;4992143;28;20195;-82
2022/10/07 11:25:15;;;;;;;12.80;11.57;;;;;;;18.20;71.52;96333.78;4993416;28;20222;-82
2022/10/07 11:27:48;;;;;;;12.38;10.82;;;;;;;18.29;72.20;96327.34;4994578;28;20215;-82
2022/10/07 11:30:17;;;;;;;12.77;11.48;;;;;;;18.49;72.16;96329.06;4996030;28;20226;-82
2022/10/07 11:32:49;;;;;;;13.93;12.48;;;;;;;18.63;70.34;96328.03;4994598;28;20206;-83
2022/10/07 11:35:25;;;;;;;13.98;12.45;;;;;;;18.74;70.04;96326.56;4990234;28;20213;-82
2022/10/07 11:38:00;;;;;;;15.93;12.02;;;;;;;18.91;69.84;96318.03;4997813;28;20223;-82
2022/10/07 11:40:30;;;;;;;14.00;11.60;;;;;;;19.01;69.63;96314.19;4996713;28;20210;-81
2022/10/07 11:43:06;;;;;;;13.48;12.20;;;;;;;18.94;68.51;96314.22;4997341;28;20574;-80
2022/10/07 11:45:41;;;;;;;14.07;12.73;;;;;;;18.95;67.94;96311.38;4997371;28;20203;-81
2022/10/07 11:48:10;;;;;;;14.38;12.93;;;;;;;18.79;68.09;96306.69;4993842;28;20215;-79
2022/10/07 11:50:40;;;;;;;14.40;12.48;;;;;;;18.87;68.47;96303.81;4997290;28;20234;-79